sensor_id;sensor_type;location;lat;lon;timestamp;pressure;altitude;pressure_sealevel;temperature;humidity
50550;BME280;36505;52.512;13.460;2023-02-01T00:01:35;100565.88;;;3.90;84.21
50550;BME280;36505;52.512;13.460;2023-02-01T00:04:00;100575.88;;;3.90;84.33
50550;BME280;36505;52.512;13.460;2023-02-01T00:06:25;100579.03;;;3.93;84.25
50550;BME280;36505;52.512;13.460;2023-02-01T00:08:54;100566.91;;;3.96;83.68
50550;BME280;36505;52.512;13.460;2023-02-01T00:11:21;100574.44;;;3.94;84.37
50550;BME280;36505;52.512;13.460;2023-02-01T00:13:47;100556.50;;;3.86;84.96
50550;BME280;36505;52.512;13.460;2023-02-01T00:16:15;100565.88;;;3.90;85.37
50550;BME280;36505;52.512;13.460;2023-02-01T00:18:42;100576.94;;;3.89;85.62
50550;BME280;36505;52.512;13.460;2023-02-01T00:21:10;100559.84;;;3.82;85.22
50550;BME280;36505;52.512;13.460;2023-02-01T00:23:36;100570.88;;;3.87;84.84
50550;BME280;36505;52.512;13.460;2023-02-01T00:26:05;100575.44;;;3.80;84.65
50550;BME280;36505;52.512;13.460;2023-02-01T00:28:31;100576.69;;;3.77;84.21
50550;BME280;36505;52.512;13.460;2023-02-01T00:30:58;100567.09;;;3.75;84.23
50550;BME280;36505;52.512;13.460;2023-02-01T00:33:24;100564.41;;;3.75;84.04
50550;BME280;36505;52.512;13.460;2023-02-01T00:35:49;100562.72;;;3.67;83.87
50550;BME280;36505;52.512;13.460;2023-02-01T00:38:15;100559.38;;;3.72;83.26
50550;BME280;36505;52.512;13.460;2023-02-01T00:40:40;100553.72;;;3.60;83.35
50550;BME280;36505;52.512;13.460;2023-02-01T00:43:05;100560.59;;;3.63;82.82
50550;BME280;36505;52.512;13.460;2023-02-01T00:45:31;100568.50;;;3.64;83.02
50550;BME280;36505;52.512;13.460;2023-02-01T00:47:56;100571.88;;;3.66;83.37
50550;BME280;36505;52.512;13.460;2023-02-01T00:50:22;100563.28;;;3.56;83.00
50550;BME280;36505;52.512;13.460;2023-02-01T00:52:47;100571.66;;;3.61;82.51
50550;BME280;36505;52.512;13.460;2023-02-01T00:55:12;100587.66;;;3.63;82.58
50550;BME280;36505;52.512;13.460;2023-02-01T00:57:38;100594.53;;;3.58;83.06
50550;BME280;36505;52.512;13.460;2023-02-01T01:00:03;100582.25;;;3.63;82.63
50550;BME280;36505;52.512;13.460;2023-02-01T01:02:29;100598.50;;;3.63;83.16
50550;BME280;36505;52.512;13.460;2023-02-01T01:04:54;100573.94;;;3.64;83.20
50550;BME280;36505;52.512;13.460;2023-02-01T01:07:20;100586.47;;;3.72;82.71
50550;BME280;36505;52.512;13.460;2023-02-01T01:09:46;100584.75;;;3.64;83.20
50550;BME280;36505;52.512;13.460;2023-02-01T01:12:11;100588.09;;;3.66;83.53
50550;BME280;36505;52.512;13.460;2023-02-01T01:14:37;100569.13;;;3.53;83.51
50550;BME280;36505;52.512;13.460;2023-02-01T01:17:02;100581.19;;;3.57;83.48
50550;BME280;36505;52.512;13.460;2023-02-01T01:19:27;100582.03;;;3.57;83.89
50550;BME280;36505;52.512;13.460;2023-02-01T01:21:53;100578.47;;;3.50;83.76
50550;BME280;36505;52.512;13.460;2023-02-01T01:24:18;100574.94;;;3.56;84.09
50550;BME280;36505;52.512;13.460;2023-02-01T01:26:43;100562.63;;;3.47;84.02
50550;BME280;36505;52.512;13.460;2023-02-01T01:29:09;100558.06;;;3.48;84.17
50550;BME280;36505;52.512;13.460;2023-02-01T01:31:36;100567.44;;;3.52;83.76
50550;BME280;36505;52.512;13.460;2023-02-01T01:34:01;100565.97;;;3.49;84.04
50550;BME280;36505;52.512;13.460;2023-02-01T01:36:28;100560.78;;;3.48;83.87
50550;BME280;36505;52.512;13.460;2023-02-01T01:38:53;100549.53;;;3.51;84.49
50550;BME280;36505;52.512;13.460;2023-02-01T01:41:21;100538.66;;;3.44;84.29
50550;BME280;36505;52.512;13.460;2023-02-01T01:46:27;100545.56;;;3.47;84.38
50550;BME280;36505;52.512;13.460;2023-02-01T01:49:14;100551.81;;;3.47;83.51
50550;BME280;36505;52.512;13.460;2023-02-01T01:51:47;100545.34;;;3.48;83.98
50550;BME280;36505;52.512;13.460;2023-02-01T01:54:24;100542.22;;;3.45;83.72
50550;BME280;36505;52.512;13.460;2023-02-01T01:56:57;100532.22;;;3.45;83.29
50550;BME280;36505;52.512;13.460;2023-02-01T01:59:24;100527.19;;;3.42;83.11
50550;BME280;36505;52.512;13.460;2023-02-01T02:01:50;100523.25;;;3.38;83.53
50550;BME280;36505;52.512;13.460;2023-02-01T02:04:16;100529.31;;;3.40;83.20
50550;BME280;36505;52.512;13.460;2023-02-01T02:06:57;100528.88;;;3.43;83.12
50550;BME280;36505;52.512;13.460;2023-02-01T02:09:24;100539.53;;;3.51;83.11
50550;BME280;36505;52.512;13.460;2023-02-01T02:11:50;100544.94;;;3.51;82.99
50550;BME280;36505;52.512;13.460;2023-02-01T02:14:17;100541.41;;;3.51;82.93
50550;BME280;36505;52.512;13.460;2023-02-01T02:34:51;100521.44;;;3.58;82.26
50550;BME280;36505;52.512;13.460;2023-02-01T02:42:43;100522.66;;;3.56;81.98
50550;BME280;36505;52.512;13.460;2023-02-01T02:45:39;100506.66;;;3.54;82.09
50550;BME280;36505;52.512;13.460;2023-02-01T02:48:30;100516.84;;;3.59;81.84
50550;BME280;36505;52.512;13.460;2023-02-01T02:51:15;100528.06;;;3.56;82.16
50550;BME280;36505;52.512;13.460;2023-02-01T02:54:12;100520.78;;;3.56;81.83
50550;BME280;36505;52.512;13.460;2023-02-01T02:56:58;100512.47;;;3.51;82.04
50550;BME280;36505;52.512;13.460;2023-02-01T02:59:44;100525.16;;;3.57;82.11
50550;BME280;36505;52.512;13.460;2023-02-01T03:02:29;100521.63;;;3.57;82.08
50550;BME280;36505;52.512;13.460;2023-02-01T03:05:14;100513.09;;;3.53;82.12
50550;BME280;36505;52.512;13.460;2023-02-01T03:08:02;100511.00;;;3.62;82.28
50550;BME280;36505;52.512;13.460;2023-02-01T03:11:02;100511.25;;;3.67;81.95
50550;BME280;36505;52.512;13.460;2023-02-01T03:16:26;100510.22;;;3.68;81.91
50550;BME280;36505;52.512;13.460;2023-02-01T03:19:11;100491.47;;;3.67;82.00
50550;BME280;36505;52.512;13.460;2023-02-01T03:24:41;100491.69;;;3.72;81.85
50550;BME280;36505;52.512;13.460;2023-02-01T03:27:14;100488.97;;;3.72;81.91
50550;BME280;36505;52.512;13.460;2023-02-01T03:29:46;100480.84;;;3.72;82.00
50550;BME280;36505;52.512;13.460;2023-02-01T03:32:14;100464.19;;;3.68;82.06
50550;BME280;36505;52.512;13.460;2023-02-01T03:34:40;100471.69;;;3.73;81.90
50550;BME280;36505;52.512;13.460;2023-02-01T03:37:09;100471.88;;;3.71;82.16
50550;BME280;36505;52.512;13.460;2023-02-01T03:39:49;100469.59;;;3.75;82.13
50550;BME280;36505;52.512;13.460;2023-02-01T03:42:34;100470.22;;;3.77;82.04
50550;BME280;36505;52.512;13.460;2023-02-01T03:45:07;100457.50;;;3.77;82.02
50550;BME280;36505;52.512;13.460;2023-02-01T03:47:38;100469.38;;;3.83;81.66
50550;BME280;36505;52.512;13.460;2023-02-01T03:55:11;100446.69;;;3.77;80.96
50550;BME280;36505;52.512;13.460;2023-02-01T03:57:48;100465.22;;;3.74;81.04
50550;BME280;36505;52.512;13.460;2023-02-01T04:00:22;100451.69;;;3.74;81.07
50550;BME280;36505;52.512;13.460;2023-02-01T04:02:48;100441.06;;;3.66;81.17
50550;BME280;36505;52.512;13.460;2023-02-01T04:05:14;100452.53;;;3.74;80.73
50550;BME280;36505;52.512;13.460;2023-02-01T04:07:40;100464.81;;;3.77;80.96
50550;BME280;36505;52.512;13.460;2023-02-01T04:10:06;100452.09;;;3.77;81.20
50550;BME280;36505;52.512;13.460;2023-02-01T04:12:31;100450.22;;;3.78;81.03
50550;BME280;36505;52.512;13.460;2023-02-01T04:14:57;100446.06;;;3.82;80.97
50550;BME280;36505;52.512;13.460;2023-02-01T04:17:23;100453.97;;;3.83;81.15
50550;BME280;36505;52.512;13.460;2023-02-01T04:19:48;100458.56;;;3.83;81.18
50550;BME280;36505;52.512;13.460;2023-02-01T04:22:14;100456.47;;;3.85;80.60
50550;BME280;36505;52.512;13.460;2023-02-01T04:24:39;100453.38;;;3.88;80.53
50550;BME280;36505;52.512;13.460;2023-02-01T04:27:05;100467.94;;;3.93;80.73
50550;BME280;36505;52.512;13.460;2023-02-01T04:29:30;100449.81;;;3.94;80.29
50550;BME280;36505;52.512;13.460;2023-02-01T04:32:03;100408.56;;;3.72;80.26
50550;BME280;36505;52.512;13.460;2023-02-01T04:34:34;100454.81;;;4.04;80.64
50550;BME280;36505;52.512;13.460;2023-02-01T04:37:00;100428.75;;;3.83;80.18
50550;BME280;36505;52.512;13.460;2023-02-01T04:39:25;100438.16;;;4.00;80.41
50550;BME280;36505;52.512;13.460;2023-02-01T04:41:51;100391.06;;;3.75;80.36
50550;BME280;36505;52.512;13.460;2023-02-01T04:44:18;100462.72;;;4.18;79.94
50550;BME280;36505;52.512;13.460;2023-02-01T04:46:45;100376.28;;;3.71;80.24
50550;BME280;36505;52.512;13.460;2023-02-01T04:49:14;100401.88;;;4.01;79.15
50550;BME280;36505;52.512;13.460;2023-02-01T04:51:40;100399.38;;;4.00;79.02
50550;BME280;36505;52.512;13.460;2023-02-01T04:54:07;100451.25;;;4.29;79.08
50550;BME280;36505;52.512;13.460;2023-02-01T04:56:32;100394.38;;;3.90;79.37
50550;BME280;36505;52.512;13.460;2023-02-01T04:59:00;100404.59;;;4.08;78.94
50550;BME280;36505;52.512;13.460;2023-02-01T05:01:27;100373.97;;;3.94;78.64
50550;BME280;36505;52.512;13.460;2023-02-01T05:03:53;100341.06;;;3.71;78.85
50550;BME280;36505;52.512;13.460;2023-02-01T05:06:18;100327.97;;;3.74;78.65
50550;BME280;36505;52.512;13.460;2023-02-01T05:08:43;100326.09;;;3.75;78.76
50550;BME280;36505;52.512;13.460;2023-02-01T05:11:09;100355.59;;;3.96;78.31
50550;BME280;36505;52.512;13.460;2023-02-01T05:13:58;100393.91;;;4.26;78.21
50550;BME280;36505;52.512;13.460;2023-02-01T05:16:28;100423.69;;;4.46;78.22
50550;BME280;36505;52.512;13.460;2023-02-01T05:18:53;100426.81;;;4.49;78.06
50550;BME280;36505;52.512;13.460;2023-02-01T05:21:19;100412.22;;;4.44;77.77
50550;BME280;36505;52.512;13.460;2023-02-01T05:23:45;100310.44;;;3.83;77.54
50550;BME280;36505;52.512;13.460;2023-02-01T05:26:31;100358.31;;;4.16;77.96
50550;BME280;36505;52.512;13.460;2023-02-01T05:29:20;100312.91;;;3.91;77.59
50550;BME280;36505;52.512;13.460;2023-02-01T05:32:19;100393.47;;;4.42;77.97
50550;BME280;36505;52.512;13.460;2023-02-01T05:35:15;100344.13;;;4.14;77.28
50550;BME280;36505;52.512;13.460;2023-02-01T05:38:21;100410.09;;;4.59;77.44
50550;BME280;36505;52.512;13.460;2023-02-01T05:41:00;100382.63;;;4.42;77.25
50550;BME280;36505;52.512;13.460;2023-02-01T05:43:29;100371.38;;;4.32;77.38
50550;BME280;36505;52.512;13.460;2023-02-01T05:46:00;100388.41;;;4.52;77.39
50550;BME280;36505;52.512;13.460;2023-02-01T05:48:35;100403.22;;;4.63;77.06
50550;BME280;36505;52.512;13.460;2023-02-01T05:51:00;100370.53;;;4.38;77.27
50550;BME280;36505;52.512;13.460;2023-02-01T05:53:26;100299.34;;;3.98;77.77
50550;BME280;36505;52.512;13.460;2023-02-01T05:56:31;100395.28;;;4.61;76.92
50550;BME280;36505;52.512;13.460;2023-02-01T06:05:57;100382.56;;;4.62;77.24
50550;BME280;36505;52.512;13.460;2023-02-01T06:13:51;100384.66;;;4.60;77.37
50550;BME280;36505;52.512;13.460;2023-02-01T06:16:17;100392.38;;;4.63;77.53
50550;BME280;36505;52.512;13.460;2023-02-01T06:18:42;100392.38;;;4.63;77.87
50550;BME280;36505;52.512;13.460;2023-02-01T06:21:08;100381.94;;;4.60;78.14
50550;BME280;36505;52.512;13.460;2023-02-01T06:23:34;100384.00;;;4.64;78.34
50550;BME280;36505;52.512;13.460;2023-02-01T06:26:05;100385.69;;;4.59;79.40
50550;BME280;36505;52.512;13.460;2023-02-01T06:28:32;100375.69;;;4.53;79.25
50550;BME280;36505;52.512;13.460;2023-02-01T06:30:58;100381.53;;;4.56;79.68
50550;BME280;36505;52.512;13.460;2023-02-01T06:33:24;100383.00;;;4.52;79.89
50550;BME280;36505;52.512;13.460;2023-02-01T06:35:57;100380.50;;;4.51;80.39
50550;BME280;36505;52.512;13.460;2023-02-01T06:38:23;100375.53;;;4.48;80.70
50550;BME280;36505;52.512;13.460;2023-02-01T06:40:56;100368.41;;;4.47;81.11
50550;BME280;36505;52.512;13.460;2023-02-01T06:43:22;100373.00;;;4.53;81.00
50550;BME280;36505;52.512;13.460;2023-02-01T06:45:47;100368.25;;;4.42;80.46
50550;BME280;36505;52.512;13.460;2023-02-01T06:48:13;100375.94;;;4.45;81.53
50550;BME280;36505;52.512;13.460;2023-02-01T06:50:38;100358.84;;;4.37;81.25
50550;BME280;36505;52.512;13.460;2023-02-01T06:53:03;100358.66;;;4.32;81.60
50550;BME280;36505;52.512;13.460;2023-02-01T06:55:29;100365.09;;;4.45;81.56
50550;BME280;36505;52.512;13.460;2023-02-01T06:57:55;100358.63;;;4.46;82.01
50550;BME280;36505;52.512;13.460;2023-02-01T07:00:24;100345.28;;;4.44;81.61
50550;BME280;36505;52.512;13.460;2023-02-01T07:02:50;100345.69;;;4.48;81.69
50550;BME280;36505;52.512;13.460;2023-02-01T07:05:16;100345.88;;;4.53;81.96
50550;BME280;36505;52.512;13.460;2023-02-01T07:07:42;100342.50;;;4.57;81.82
50550;BME280;36505;52.512;13.460;2023-02-01T07:10:09;100340.63;;;4.58;80.47
50550;BME280;36505;52.512;13.460;2023-02-01T07:12:34;100339.59;;;4.59;80.42
50550;BME280;36505;52.512;13.460;2023-02-01T07:15:00;100332.50;;;4.58;80.56
50550;BME280;36505;52.512;13.460;2023-02-01T07:17:26;100341.25;;;4.60;79.71
50550;BME280;36505;52.512;13.460;2023-02-01T07:19:54;100332.72;;;4.56;79.65
50550;BME280;36505;52.512;13.460;2023-02-01T07:22:19;100337.91;;;4.58;79.79
50550;BME280;36505;52.512;13.460;2023-02-01T07:24:44;100332.28;;;4.59;80.11
50550;BME280;36505;52.512;13.460;2023-02-01T07:27:10;100339.59;;;4.59;80.56
50550;BME280;36505;52.512;13.460;2023-02-01T07:29:35;100300.03;;;4.45;80.37
50550;BME280;36505;52.512;13.460;2023-02-01T07:32:01;100329.38;;;4.61;80.28
50550;BME280;36505;52.512;13.460;2023-02-01T07:34:27;100327.88;;;4.65;80.60
50550;BME280;36505;52.512;13.460;2023-02-01T07:36:53;100321.84;;;4.63;80.55
50550;BME280;36505;52.512;13.460;2023-02-01T07:39:18;100319.56;;;4.60;80.57
50550;BME280;36505;52.512;13.460;2023-02-01T07:41:43;100297.66;;;4.61;81.08
50550;BME280;36505;52.512;13.460;2023-02-01T07:44:09;100303.47;;;4.65;81.42
50550;BME280;36505;52.512;13.460;2023-02-01T07:46:34;100306.63;;;4.62;81.45
50550;BME280;36505;52.512;13.460;2023-02-01T07:49:01;100300.16;;;4.63;81.87
50550;BME280;36505;52.512;13.460;2023-02-01T07:51:26;100303.03;;;4.68;81.42
50550;BME280;36505;52.512;13.460;2023-02-01T07:53:51;100310.19;;;4.62;81.77
50550;BME280;36505;52.512;13.460;2023-02-01T07:56:19;100317.50;;;4.55;82.25
50550;BME280;36505;52.512;13.460;2023-02-01T07:58:52;100297.09;;;4.46;83.22
50550;BME280;36505;52.512;13.460;2023-02-01T08:01:22;100311.09;;;4.43;83.84
50550;BME280;36505;52.512;13.460;2023-02-01T08:03:54;100314.66;;;4.37;84.78
50550;BME280;36505;52.512;13.460;2023-02-01T08:06:20;100319.25;;;4.30;85.59
50550;BME280;36505;52.512;13.460;2023-02-01T08:08:47;100317.38;;;4.30;85.79
50550;BME280;36505;52.512;13.460;2023-02-01T08:11:13;100306.34;;;4.25;86.43
50550;BME280;36505;52.512;13.460;2023-02-01T08:13:39;100307.84;;;4.21;85.68
50550;BME280;36505;52.512;13.460;2023-02-01T08:16:07;100294.97;;;4.04;85.99
50550;BME280;36505;52.512;13.460;2023-02-01T08:18:34;100299.34;;;4.05;86.83
50550;BME280;36505;52.512;13.460;2023-02-01T08:21:17;100312.69;;;4.06;87.08
50550;BME280;36505;52.512;13.460;2023-02-01T08:23:44;100313.53;;;4.00;87.07
50550;BME280;36505;52.512;13.460;2023-02-01T08:28:52;100310.34;;;4.10;87.24
50550;BME280;36505;52.512;13.460;2023-02-01T08:31:19;100315.19;;;4.01;87.56
50550;BME280;36505;52.512;13.460;2023-02-01T08:33:50;100316.44;;;3.98;88.00
50550;BME280;36505;52.512;13.460;2023-02-01T08:36:16;100320.22;;;3.91;88.02
50550;BME280;36505;52.512;13.460;2023-02-01T08:38:42;100316.91;;;3.89;88.81
50550;BME280;36505;52.512;13.460;2023-02-01T08:41:13;100290.00;;;3.87;88.69
50550;BME280;36505;52.512;13.460;2023-02-01T08:43:39;100317.28;;;3.99;89.19
50550;BME280;36505;52.512;13.460;2023-02-01T08:46:05;100326.03;;;4.01;89.39
50550;BME280;36505;52.512;13.460;2023-02-01T08:48:31;100328.50;;;4.03;89.28
50550;BME280;36505;52.512;13.460;2023-02-01T08:51:01;100325.59;;;4.04;89.42
50550;BME280;36505;52.512;13.460;2023-02-01T08:53:26;100326.44;;;3.98;89.39
50550;BME280;36505;52.512;13.460;2023-02-01T08:55:52;100321.00;;;4.05;89.67
50550;BME280;36505;52.512;13.460;2023-02-01T08:58:17;100337.72;;;4.02;89.64
50550;BME280;36505;52.512;13.460;2023-02-01T09:00:43;100335.19;;;4.00;89.55
50550;BME280;36505;52.512;13.460;2023-02-01T09:03:10;100340.19;;;4.03;90.02
50550;BME280;36505;52.512;13.460;2023-02-01T09:05:36;100340.81;;;4.05;90.14
50550;BME280;36505;52.512;13.460;2023-02-01T09:08:01;100335.84;;;4.02;90.02
50550;BME280;36505;52.512;13.460;2023-02-01T09:10:27;100329.59;;;3.95;89.79
50550;BME280;36505;52.512;13.460;2023-02-01T09:12:52;100335.19;;;4.00;90.23
50550;BME280;36505;52.512;13.460;2023-02-01T09:15:18;100330.19;;;3.97;90.34
50550;BME280;36505;52.512;13.460;2023-02-01T09:17:43;100337.06;;;4.06;90.41
50550;BME280;36505;52.512;13.460;2023-02-01T09:20:09;100344.53;;;4.11;90.23
50550;BME280;36505;52.512;13.460;2023-02-01T09:22:35;100347.50;;;4.09;89.97
50550;BME280;36505;52.512;13.460;2023-02-01T09:25:00;100361.22;;;4.21;89.64
50550;BME280;36505;52.512;13.460;2023-02-01T09:27:25;100350.56;;;4.26;89.17
50550;BME280;36505;52.512;13.460;2023-02-01T09:29:51;100364.53;;;4.29;89.07
50550;BME280;36505;52.512;13.460;2023-02-01T09:32:21;100367.25;;;4.29;89.25
50550;BME280;36505;52.512;13.460;2023-02-01T09:34:48;100370.13;;;4.34;89.09
50550;BME280;36505;52.512;13.460;2023-02-01T09:37:14;100363.47;;;4.30;88.98
50550;BME280;36505;52.512;13.460;2023-02-01T09:39:40;100355.31;;;4.30;89.17
50550;BME280;36505;52.512;13.460;2023-02-01T09:47:57;100389.47;;;4.45;88.72
50550;BME280;36505;52.512;13.460;2023-02-01T09:50:37;100394.91;;;4.45;88.31
50550;BME280;36505;52.512;13.460;2023-02-01T09:53:12;100398.44;;;4.45;87.85
50550;BME280;36505;52.512;13.460;2023-02-01T09:55:42;100391.78;;;4.48;88.15
50550;BME280;36505;52.512;13.460;2023-02-01T09:58:11;100395.97;;;4.50;87.83
50550;BME280;36505;52.512;13.460;2023-02-01T10:00:39;100399.28;;;4.52;87.89
50550;BME280;36505;52.512;13.460;2023-02-01T10:03:11;100394.88;;;4.58;87.07
50550;BME280;36505;52.512;13.460;2023-02-01T10:11:27;100403.22;;;4.63;86.79
50550;BME280;36505;52.512;13.460;2023-02-01T10:14:18;100405.13;;;4.56;86.61
50550;BME280;36505;52.512;13.460;2023-02-01T10:17:20;100406.38;;;4.47;86.97
50550;BME280;36505;52.512;13.460;2023-02-01T10:22:54;100416.84;;;4.36;88.31
50550;BME280;36505;52.512;13.460;2023-02-01T10:25:43;100410.78;;;4.34;88.44
50550;BME280;36505;52.512;13.460;2023-02-01T10:28:17;100416.63;;;4.31;88.13
50550;BME280;36505;52.512;13.460;2023-02-01T10:30:45;100403.06;;;4.38;88.37
50550;BME280;36505;52.512;13.460;2023-02-01T10:33:18;100415.16;;;4.42;88.48
50550;BME280;36505;52.512;13.460;2023-02-01T10:35:45;100422.47;;;4.42;88.63
50550;BME280;36505;52.512;13.460;2023-02-01T10:38:32;100422.66;;;4.47;88.31
50550;BME280;36505;52.512;13.460;2023-02-01T10:41:04;100422.84;;;4.52;87.92
50550;BME280;36505;52.512;13.460;2023-02-01T10:43:35;100408.41;;;4.58;88.47
50550;BME280;36505;52.512;13.460;2023-02-01T10:46:00;100409.03;;;4.66;88.42
50550;BME280;36505;52.512;13.460;2023-02-01T10:48:25;100400.25;;;4.64;88.11
50550;BME280;36505;52.512;13.460;2023-02-01T10:50:58;100412.75;;;4.72;88.00
50550;BME280;36505;52.512;13.460;2023-02-01T10:53:46;100407.53;;;4.77;87.78
50550;BME280;36505;52.512;13.460;2023-02-01T10:56:13;100417.75;;;4.75;87.80
50550;BME280;36505;52.512;13.460;2023-02-01T10:58:44;100420.47;;;4.75;87.68
50550;BME280;36505;52.512;13.460;2023-02-01T11:01:19;100412.38;;;4.68;87.74
50550;BME280;36505;52.512;13.460;2023-02-01T11:03:57;100413.81;;;4.64;87.90
50550;BME280;36505;52.512;13.460;2023-02-01T11:06:30;100409.03;;;4.66;87.50
50550;BME280;36505;52.512;13.460;2023-02-01T11:09:01;100397.56;;;4.64;86.96
50550;BME280;36505;52.512;13.460;2023-02-01T11:11:27;100394.22;;;4.69;86.91
50550;BME280;36505;52.512;13.460;2023-02-01T11:14:00;100389.91;;;4.93;86.60
50550;BME280;36505;52.512;13.460;2023-02-01T11:16:34;100387.81;;;5.01;86.49
50550;BME280;36505;52.512;13.460;2023-02-01T11:19:00;100378.66;;;4.96;86.69
50550;BME280;36505;52.512;13.460;2023-02-01T11:21:26;100397.59;;;5.02;86.56
50550;BME280;36505;52.512;13.460;2023-02-01T11:23:51;100386.94;;;5.07;87.21
50550;BME280;36505;52.512;13.460;2023-02-01T11:26:24;100386.84;;;5.21;87.24
50550;BME280;36505;52.512;13.460;2023-02-01T11:28:56;100373.72;;;5.49;86.31
50550;BME280;36505;52.512;13.460;2023-02-01T11:31:24;100379.31;;;5.54;86.10
50550;BME280;36505;52.512;13.460;2023-02-01T11:33:53;100341.78;;;5.69;84.89
50550;BME280;36505;52.512;13.460;2023-02-01T11:36:23;100363.41;;;5.82;84.28
50550;BME280;36505;52.512;13.460;2023-02-01T11:39:17;100365.81;;;5.97;83.85
50550;BME280;36505;52.512;13.460;2023-02-01T11:42:12;100361.00;;;6.17;83.41
50550;BME280;36505;52.512;13.460;2023-02-01T11:44:43;100363.44;;;6.25;83.48
50550;BME280;36505;52.512;13.460;2023-02-01T11:49:50;100356.13;;;6.26;83.28
50550;BME280;36505;52.512;13.460;2023-02-01T11:52:41;100347.41;;;6.35;82.54
50550;BME280;36505;52.512;13.460;2023-02-01T12:07:11;100330.88;;;6.37;81.45
50550;BME280;36505;52.512;13.460;2023-02-01T12:12:08;100321.31;;;6.34;81.20
50550;BME280;36505;52.512;13.460;2023-02-01T12:31:01;100305.34;;;6.38;78.66
50550;BME280;36505;52.512;13.460;2023-02-01T12:37:27;100285.50;;;6.19;78.03
50550;BME280;36505;52.512;13.460;2023-02-01T12:39:39;100294.31;;;6.15;78.46
50550;BME280;36505;52.512;13.460;2023-02-01T12:42:26;100281.41;;;6.10;78.50
50550;BME280;36505;52.512;13.460;2023-02-01T12:45:02;100262.91;;;6.01;78.28
50550;BME280;36505;52.512;13.460;2023-02-01T12:47:41;100263.81;;;5.94;78.18
50550;BME280;36505;52.512;13.460;2023-02-01T12:55:52;100231.31;;;5.81;77.78
50550;BME280;36505;52.512;13.460;2023-02-01T13:01:08;100243.75;;;5.95;78.20
50550;BME280;36505;52.512;13.460;2023-02-01T13:06:17;100225.69;;;6.01;78.40
50550;BME280;36505;52.512;13.460;2023-02-01T13:08:53;100245.47;;;6.08;77.89
50550;BME280;36505;52.512;13.460;2023-02-01T13:11:29;100236.03;;;6.11;77.25
50550;BME280;36505;52.512;13.460;2023-02-01T13:16:28;100236.78;;;6.18;76.25
50550;BME280;36505;52.512;13.460;2023-02-01T13:21:46;100280.81;;;6.08;76.74
50550;BME280;36505;52.512;13.460;2023-02-01T13:24:24;100296.53;;;6.06;76.93
50550;BME280;36505;52.512;13.460;2023-02-01T13:26:54;100289.22;;;6.07;76.93
50550;BME280;36505;52.512;13.460;2023-02-01T13:29:21;100279.16;;;6.07;77.36
50550;BME280;36505;52.512;13.460;2023-02-01T13:34:45;100276.19;;;6.09;76.26
50550;BME280;36505;52.512;13.460;2023-02-01T13:37:39;100261.13;;;6.13;76.61
50550;BME280;36505;52.512;13.460;2023-02-01T13:43:01;100258.63;;;6.11;75.74
50550;BME280;36505;52.512;13.460;2023-02-01T13:45:33;100247.28;;;6.14;75.55
50550;BME280;36505;52.512;13.460;2023-02-01T13:48:03;100245.66;;;6.13;75.25
50550;BME280;36505;52.512;13.460;2023-02-01T13:50:35;100227.88;;;6.11;75.29
50550;BME280;36505;52.512;13.460;2023-02-01T13:53:13;100234.28;;;6.16;75.20
50550;BME280;36505;52.512;13.460;2023-02-01T13:55:41;100224.47;;;6.15;74.87
50550;BME280;36505;52.512;13.460;2023-02-01T14:00:41;100223.66;;;6.15;75.38
50550;BME280;36505;52.512;13.460;2023-02-01T14:03:15;100220.09;;;6.14;74.96
50550;BME280;36505;52.512;13.460;2023-02-01T14:13:39;100217.94;;;6.05;75.05
50550;BME280;36505;52.512;13.460;2023-02-01T14:23:42;100203.72;;;5.84;79.83
50550;BME280;36505;52.512;13.460;2023-02-01T14:34:48;100184.03;;;5.71;81.86
50550;BME280;36505;52.512;13.460;2023-02-01T14:55:46;100153.75;;;5.67;82.08
50550;BME280;36505;52.512;13.460;2023-02-01T15:06:57;100119.13;;;5.63;79.59
50550;BME280;36505;52.512;13.460;2023-02-01T15:14:42;100121.41;;;5.66;78.99
50550;BME280;36505;52.512;13.460;2023-02-01T15:17:37;100118.91;;;5.64;78.89
50550;BME280;36505;52.512;13.460;2023-02-01T15:20:50;100133.47;;;5.51;80.04
50550;BME280;36505;52.512;13.460;2023-02-01T15:23:14;100127.13;;;5.39;81.27
50550;BME280;36505;52.512;13.460;2023-02-01T15:25:45;100135.03;;;5.23;82.05
50550;BME280;36505;52.512;13.460;2023-02-01T15:28:14;100140.13;;;5.12;82.61
50550;BME280;36505;52.512;13.460;2023-02-01T15:30:39;100145.69;;;4.99;82.81
50550;BME280;36505;52.512;13.460;2023-02-01T15:33:16;100132.09;;;4.81;83.18
50550;BME280;36505;52.512;13.460;2023-02-01T15:35:43;100157.31;;;4.82;83.43
50550;BME280;36505;52.512;13.460;2023-02-01T15:41:18;100165.13;;;4.71;84.32
50550;BME280;36505;52.512;13.460;2023-02-01T15:48:54;100163.38;;;4.52;85.47
50550;BME280;36505;52.512;13.460;2023-02-01T15:51:24;100159.66;;;4.47;85.30
50550;BME280;36505;52.512;13.460;2023-02-01T15:53:57;100156.59;;;4.43;85.71
50550;BME280;36505;52.512;13.460;2023-02-01T15:56:29;100173.53;;;4.32;86.04
50550;BME280;36505;52.512;13.460;2023-02-01T15:59:00;100180.66;;;4.26;86.66
50550;BME280;36505;52.512;13.460;2023-02-01T16:01:27;100192.97;;;4.22;85.59
50550;BME280;36505;52.512;13.460;2023-02-01T16:04:16;100176.78;;;4.09;86.55
50550;BME280;36505;52.512;13.460;2023-02-01T16:06:56;100211.56;;;4.12;86.57
50550;BME280;36505;52.512;13.460;2023-02-01T16:09:24;100205.56;;;4.04;86.30
50550;BME280;36505;52.512;13.460;2023-02-01T16:12:00;100199.97;;;3.98;86.84
50550;BME280;36505;52.512;13.460;2023-02-01T16:14:26;100199.34;;;3.90;85.61
50550;BME280;36505;52.512;13.460;2023-02-01T16:16:53;100200.66;;;3.81;85.74
50550;BME280;36505;52.512;13.460;2023-02-01T16:19:19;100205.66;;;3.77;85.68
50550;BME280;36505;52.512;13.460;2023-02-01T16:21:45;100197.56;;;3.64;85.29